TONO2: Salt Fork Arkansas R., Tonkawa, OK

                                SHEF ID:       TONO2     Salt Fork Arkansas River at Tonk
STATION TYPE:
Regulating: Stage = 17.00, Flow = 10937

PRECIP STAGE STAGE(2) RIV-FLOW BAT-LOAD
in ft ft cfs volt
Ccp-Rev Ccp-Rev Ccp-Rev Ccp-Rev Ccp-Rev
(America/Chicago)
02/16 00:00 0.00 4.06 ---- 354 12.65
02/16 01:00 0.00 4.06 ---- 354 12.65
02/16 02:00 0.00 4.09 ---- 370 12.65
02/16 03:00 0.00 4.09 ---- 370 12.65
02/16 04:00 0.00 4.10 ---- 375 12.57
02/16 05:00 0.00 4.12 ---- 385 12.57
02/16 06:00 0.00 4.13 ---- 390 12.57
02/16 07:00 0.00 4.16 ---- 405 12.57
02/16 08:00 0.00 4.17 ---- 410 12.57
02/16 09:00 0.00 4.17 ---- 410 13.05
02/16 10:00 0.00 4.19 ---- 420 13.68
02/16 11:00 0.00 4.21 ---- 430 14.56
02/16 12:00 0.00 4.19 ---- 420 13.60
02/16 13:00 0.00 4.19 ---- 420 13.53
02/16 14:00 0.00 4.19 ---- 420 13.44
02/16 15:00 0.00 4.18 ---- 415 13.44
02/16 16:00 0.00 4.20 ---- 425 13.44
02/16 17:00 0.00 4.19 ---- 420 13.29
02/16 18:00 0.00 4.20 ---- 425 13.29
02/16 19:00 0.00 4.21 ---- 430 12.97
02/16 20:00 0.00 4.21 ---- 430 12.81
02/16 21:00 0.00 4.21 ---- 430 12.81
02/16 22:00 0.00 4.21 ---- 430 12.73
02/16 23:00 0.00 4.21 ---- 430 12.73
Data processed at Tue 17Feb2026 05:36 GMT

NOTICE: If you are parsing this page

Please convert to using our Data API. Starting early 2026 we will be migrating to: https://water.usace.army.mil with modern pages rendered in JavaScript. When this migration completes you will no longer be able to scrape this page! CWMSDataAPI (CDA)

Timeseries IDs (TSIDs)

TSIDs used from left to right in the data table
TONK.Precip-Inc.Total.1Hour.1Hour.Ccp-Rev
TONK.Stage.Inst.1Hour.0.Ccp-Rev
TONK.Stage-Alt.Inst.1Hour.0.Ccp-Rev
TONK.Flow.Inst.1Hour.0.Ccp-Rev
TONK.Volt-Battery Load.Inst.1Hour.0.Ccp-Rev

                            

All information presented herein is the property of the government of the United States of America and may be revised or deleted at any time without prior notice. Dissemination of this information without the expressed written consent of the Public Affairs Office, Tulsa District U.S. Army Corps of Engineers is strictly prohibited. These data are gathered electronically and, as presented, have NOT undergone any form of quality control. These data are NOT guaranteed to be valid or correct.